Time;durP1;ratioP1;P1;durP2;ratioP2;P2;SDS_P1;SDS_P2;PMS_P1;PMS_P2;Temp;Humidity;BMP_temperature;BMP_pressure;BME280_temperature;BME280_humidity;BME280_pressure;Samples;Min_cycle;Max_cycle;Signal;HPM_P1;HPM_P2
2021/05/30 00:01:44;;;;;;;2.50;1.60;;;;;;;15.95;68.87;100026.99;1675280;85;20977;-73
2021/05/30 00:04:11;;;;;;;4.60;1.72;;;;;;;15.89;69.17;100027.37;1676214;85;21077;-72
2021/05/30 00:06:38;;;;;;;2.92;1.72;;;;;;;15.82;69.44;100028.76;1670959;85;21028;-73
2021/05/30 00:09:05;;;;;;;3.65;1.90;;;;;;;15.77;69.93;100027.28;1653045;85;21545;-72
2021/05/30 00:11:35;;;;;;;7.65;2.10;;;;;;;15.76;70.37;100029.66;1653712;85;20897;-72
2021/05/30 00:14:03;;;;;;;3.65;2.33;;;;;;;15.74;70.64;100022.38;1653203;85;21012;-72
2021/05/30 00:16:32;;;;;;;3.20;1.92;;;;;;;15.69;70.89;100027.56;1653848;85;21626;-71
2021/05/30 00:18:59;;;;;;;5.30;2.80;;;;;;;15.61;71.26;100023.81;1654648;85;20989;-72
2021/05/30 00:21:27;;;;;;;4.83;2.50;;;;;;;15.57;71.79;100025.30;1653270;85;21032;-71
2021/05/30 00:24:00;;;;;;;4.75;2.90;;;;;;;15.54;72.10;100025.74;1653175;85;21091;-72
2021/05/30 00:26:25;;;;;;;8.08;3.20;;;;;;;15.52;72.53;100029.69;1653055;84;21101;-72
2021/05/30 00:28:52;;;;;;;4.35;3.00;;;;;;;15.46;72.91;100029.17;1653683;85;21481;-72
2021/05/30 00:31:20;;;;;;;5.45;3.00;;;;;;;15.38;73.32;100026.25;1653670;84;21036;-73
2021/05/30 00:33:48;;;;;;;9.20;5.80;;;;;;;15.33;73.82;100031.47;1653823;85;21048;-72
2021/05/30 00:36:14;;;;;;;16.62;11.95;;;;;;;15.32;74.08;100034.66;1653157;86;21119;-72
2021/05/30 00:38:40;;;;;;;6.28;3.42;;;;;;;15.32;74.58;100031.98;1653017;85;21106;-72
2021/05/30 00:41:07;;;;;;;5.17;2.70;;;;;;;15.34;74.57;100034.42;1654075;86;21150;-72
2021/05/30 00:43:49;;;;;;;4.08;2.08;;;;;;;15.34;73.84;100038.44;1653762;85;21159;-71
2021/05/30 00:46:16;;;;;;;4.85;2.40;;;;;;;15.39;73.19;100042.12;1652831;84;20949;-71
2021/05/30 00:48:42;;;;;;;5.30;2.55;;;;;;;15.46;72.28;100044.73;1653725;85;21025;-70
2021/05/30 00:51:09;;;;;;;3.60;2.27;;;;;;;15.52;71.73;100045.25;1653077;85;20956;-72
2021/05/30 00:53:36;;;;;;;4.92;1.85;;;;;;;15.58;71.29;100040.86;1653837;85;21176;-72
2021/05/30 00:56:05;;;;;;;4.62;2.02;;;;;;;15.65;70.70;100038.94;1653890;85;21445;-72
2021/05/30 00:58:32;;;;;;;3.05;1.60;;;;;;;15.76;70.20;100042.23;1653435;86;20949;-72
2021/05/30 01:01:00;;;;;;;2.75;1.60;;;;;;;15.83;69.55;100042.47;1653921;85;21032;-74
2021/05/30 01:03:27;;;;;;;2.25;1.32;;;;;;;15.83;68.86;100041.13;1653666;86;20984;-74
2021/05/30 01:05:54;;;;;;;4.83;1.42;;;;;;;15.76;68.43;100040.37;1652705;85;21084;-73
2021/05/30 01:08:26;;;;;;;2.58;1.42;;;;;;;15.69;68.05;100040.96;1668631;84;21012;-73
2021/05/30 01:10:49;;;;;;;6.33;1.90;;;;;;;15.57;68.12;100042.72;1671980;84;21132;-73
2021/05/30 01:13:17;;;;;;;5.87;1.67;;;;;;;15.47;68.39;100049.06;1671376;84;21163;-74
2021/05/30 01:15:44;;;;;;;5.40;2.80;;;;;;;15.36;68.67;100047.92;1671288;85;21643;-72
2021/05/30 01:18:11;;;;;;;5.87;3.35;;;;;;;15.30;69.74;100049.28;1645879;85;21132;-72
2021/05/30 01:20:39;;;;;;;5.12;3.80;;;;;;;15.22;70.86;100045.02;1671623;84;21147;-73
2021/05/30 01:23:10;;;;;;;7.80;3.47;;;;;;;15.16;71.72;100046.41;1672801;85;21120;-72
2021/05/30 01:25:36;;;;;;;8.38;3.55;;;;;;;15.10;72.58;100042.75;1666016;86;21336;-70
2021/05/30 01:28:08;;;;;;;5.75;3.75;;;;;;;15.05;73.56;100039.07;1666075;85;21088;-72
2021/05/30 01:30:35;;;;;;;4.65;3.77;;;;;;;14.99;74.12;100041.28;1666562;85;21105;-71
2021/05/30 01:33:02;;;;;;;6.47;4.25;;;;;;;14.91;74.63;100045.04;1666415;85;20957;-71
2021/05/30 01:35:29;;;;;;;7.42;3.90;;;;;;;14.84;75.21;100050.41;1666505;86;21470;-71
2021/05/30 01:37:55;;;;;;;5.72;4.03;;;;;;;14.81;75.58;100046.00;1647433;86;21032;-71
2021/05/30 01:40:22;;;;;;;7.95;4.47;;;;;;;14.73;76.05;100048.41;1647407;85;21012;-72
2021/05/30 01:42:52;;;;;;;8.20;4.17;;;;;;;14.66;76.28;100043.61;1666321;85;21570;-71
2021/05/30 01:45:21;;;;;;;6.15;4.05;;;;;;;14.60;76.63;100043.14;1666218;86;21000;-71
2021/05/30 01:47:48;;;;;;;8.28;4.58;;;;;;;14.55;76.95;100041.61;1666355;86;21080;-70
2021/05/30 01:50:22;;;;;;;6.12;4.42;;;;;;;14.48;77.27;100042.16;1666322;85;21617;-70
2021/05/30 01:52:49;;;;;;;5.58;4.15;;;;;;;14.43;77.65;100048.66;1666452;85;21033;-71
2021/05/30 01:55:22;;;;;;;5.85;4.17;;;;;;;14.39;77.77;100048.77;1666491;85;21526;-70
2021/05/30 01:57:48;;;;;;;7.75;4.30;;;;;;;14.35;78.05;100053.72;1666024;85;20968;-71
2021/05/30 02:00:15;;;;;;;6.33;4.08;;;;;;;14.31;78.26;100050.34;1666291;86;21139;-71
2021/05/30 02:02:51;;;;;;;6.47;4.37;;;;;;;14.28;78.40;100052.07;1666523;86;21620;-72
2021/05/30 02:05:20;;;;;;;6.80;4.08;;;;;;;14.26;78.57;100054.97;1665635;86;21111;-73
2021/05/30 02:07:49;;;;;;;5.90;4.50;;;;;;;14.24;78.66;100052.19;1665685;84;21866;-73
2021/05/30 02:10:17;;;;;;;7.67;4.42;;;;;;;14.22;78.81;100048.91;1664792;86;21116;-72
2021/05/30 02:12:49;;;;;;;5.55;4.12;;;;;;;14.21;78.88;100044.59;1664971;85;21088;-71
2021/05/30 02:15:16;;;;;;;7.05;4.35;;;;;;;14.22;79.04;100047.58;1665531;85;21096;-72
2021/05/30 02:17:43;;;;;;;7.45;4.55;;;;;;;14.21;79.02;100055.28;1665214;86;21060;-73
2021/05/30 02:20:10;;;;;;;6.45;4.30;;;;;;;14.18;79.09;100060.55;1665690;86;21128;-72
2021/05/30 02:22:37;;;;;;;5.08;4.58;;;;;;;14.16;79.21;100058.58;1666319;86;21048;-72
2021/05/30 02:25:06;;;;;;;6.70;4.50;;;;;;;14.18;79.31;100061.06;1666348;85;21104;-71
2021/05/30 02:27:32;;;;;;;7.55;4.80;;;;;;;14.19;79.33;100071.55;1666401;85;21576;-73
2021/05/30 02:29:58;;;;;;;4.85;3.62;;;;;;;14.20;79.43;100069.70;1666395;85;21040;-74
2021/05/30 02:32:25;;;;;;;9.28;3.70;;;;;;;14.23;79.45;100072.78;1666371;86;21104;-74
2021/05/30 02:34:52;;;;;;;6.05;4.00;;;;;;;14.27;79.45;100073.18;1667889;86;21049;-73
2021/05/30 02:37:19;;;;;;;6.50;3.90;;;;;;;14.29;79.45;100074.60;1666972;85;21020;-74
2021/05/30 02:39:46;;;;;;;5.12;3.22;;;;;;;14.31;79.47;100074.41;1666287;85;21849;-73
2021/05/30 02:42:13;;;;;;;6.85;3.40;;;;;;;14.34;79.46;100068.15;1666285;86;21577;-74
2021/05/30 02:44:39;;;;;;;6.55;3.25;;;;;;;14.40;79.48;100073.98;1666391;85;21735;-73
2021/05/30 02:47:06;;;;;;;6.33;3.35;;;;;;;14.43;79.46;100069.53;1666299;86;21632;-73
2021/05/30 02:49:34;;;;;;;6.05;2.80;;;;;;;14.47;79.36;100073.95;1666293;86;21092;-71
2021/05/30 02:52:02;;;;;;;4.70;2.80;;;;;;;14.51;79.26;100071.16;1666412;85;21096;-72
2021/05/30 02:54:29;;;;;;;4.03;2.92;;;;;;;14.56;79.11;100072.69;1666523;86;21061;-71
2021/05/30 02:56:57;;;;;;;4.67;2.55;;;;;;;14.58;78.98;100074.62;1666391;86;21060;-72
2021/05/30 02:59:23;;;;;;;3.10;2.20;;;;;;;14.62;78.70;100075.84;1666293;86;21139;-72
2021/05/30 03:01:50;;;;;;;4.20;2.08;;;;;;;14.68;78.19;100076.34;1666393;85;20977;-73
2021/05/30 03:04:16;;;;;;;5.45;2.10;;;;;;;14.75;77.75;100075.80;1666489;86;21116;-70
2021/05/30 03:06:42;;;;;;;3.35;2.30;;;;;;;14.80;77.21;100070.60;1666433;85;21068;-72
2021/05/30 03:09:09;;;;;;;2.30;1.90;;;;;;;14.85;76.72;100069.45;1674648;84;21629;-71
2021/05/30 03:11:35;;;;;;;7.12;2.00;;;;;;;14.90;76.02;100064.80;1676258;85;21659;-70
2021/05/30 03:14:02;;;;;;;4.35;1.60;;;;;;;14.97;75.32;100062.91;1676299;85;21084;-70
2021/05/30 03:16:28;;;;;;;3.83;2.10;;;;;;;14.99;74.87;100062.19;1676270;84;21123;-71
2021/05/30 03:18:55;;;;;;;4.10;1.90;;;;;;;15.01;74.41;100053.41;1676495;84;21099;-70
2021/05/30 03:21:21;;;;;;;3.35;1.60;;;;;;;15.04;73.95;100056.16;1676240;84;21127;-71
2021/05/30 03:23:48;;;;;;;2.17;1.75;;;;;;;15.07;73.52;100057.09;1676219;84;21000;-74
2021/05/30 03:26:14;;;;;;;4.45;1.90;;;;;;;15.10;73.20;100062.84;1676281;84;21084;-71
2021/05/30 03:28:42;;;;;;;3.70;1.72;;;;;;;15.13;72.87;100064.25;1676209;85;21049;-71
2021/05/30 03:31:09;;;;;;;6.25;2.20;;;;;;;15.15;72.71;100062.16;1676355;85;21102;-70
2021/05/30 03:33:36;;;;;;;2.42;1.45;;;;;;;15.15;72.61;100068.86;1676227;85;22167;-72
2021/05/30 03:36:06;;;;;;;4.67;1.85;;;;;;;15.18;72.50;100064.44;1676125;85;21066;-72
2021/05/30 03:38:33;;;;;;;4.67;1.60;;;;;;;15.20;72.34;100058.33;1676053;84;21098;-72
2021/05/30 03:41:05;;;;;;;3.50;1.80;;;;;;;15.21;72.31;100059.98;1676247;84;21655;-72
2021/05/30 03:43:30;;;;;;;2.60;1.52;;;;;;;15.24;72.11;100057.69;1676143;85;21068;-73
2021/05/30 03:45:57;;;;;;;4.40;1.60;;;;;;;15.26;71.95;100058.27;1676213;84;21060;-67
2021/05/30 03:48:24;;;;;;;3.52;1.70;;;;;;;15.30;71.80;100058.66;1675975;84;21048;-69
2021/05/30 03:50:50;;;;;;;5.30;1.70;;;;;;;15.34;71.67;100047.30;1676307;85;20948;-67
2021/05/30 03:53:20;;;;;;;2.17;1.70;;;;;;;15.38;71.57;100061.90;1676170;85;21032;-69
2021/05/30 03:55:48;;;;;;;3.67;1.60;;;;;;;15.41;71.46;100064.65;1676172;84;21048;-70
2021/05/30 03:58:15;;;;;;;5.37;1.32;;;;;;;15.49;71.42;100064.90;1676215;84;21083;-70
2021/05/30 04:00:42;;;;;;;2.45;1.72;;;;;;;15.59;70.99;100063.95;1676066;84;21047;-70
2021/05/30 04:03:09;;;;;;;2.90;1.80;;;;;;;15.72;70.56;100065.98;1676113;85;21092;-71
2021/05/30 04:05:36;;;;;;;5.30;2.40;;;;;;;15.83;70.24;100065.77;1676153;85;21064;-66
2021/05/30 04:08:03;;;;;;;4.00;2.33;;;;;;;15.92;70.27;100069.00;1673620;85;21028;-67
2021/05/30 04:10:30;;;;;;;5.83;2.20;;;;;;;15.88;70.17;100061.40;1666418;85;21044;-69
2021/05/30 04:12:57;;;;;;;3.77;1.90;;;;;;;15.86;70.29;100063.47;1666361;85;21032;-68
2021/05/30 04:15:25;;;;;;;10.40;2.30;;;;;;;15.87;70.30;100057.07;1666515;85;20984;-70
2021/05/30 04:17:52;;;;;;;4.50;2.72;;;;;;;15.92;70.28;100058.27;1666573;85;21046;-69
2021/05/30 04:20:20;;;;;;;3.25;2.30;;;;;;;15.93;70.19;100064.77;1666571;85;21470;-69
2021/05/30 04:22:48;;;;;;;4.58;2.10;;;;;;;15.99;70.35;100061.70;1666360;86;21186;-69
2021/05/30 04:25:15;;;;;;;2.72;2.00;;;;;;;16.13;70.17;100071.24;1666351;85;21068;-69
2021/05/30 04:27:42;;;;;;;3.75;2.20;;;;;;;16.28;69.81;100072.52;1666380;86;21550;-67
2021/05/30 04:30:11;;;;;;;3.22;2.50;;;;;;;16.38;69.30;100070.67;1666183;85;21053;-70
2021/05/30 04:32:38;;;;;;;2.92;2.17;;;;;;;16.49;68.95;100077.15;1668167;85;21023;-70
2021/05/30 04:35:26;;;;;;;2.52;2.05;;;;;;;16.56;68.50;100080.56;1666518;85;21095;-70
2021/05/30 04:37:53;;;;;;;4.83;1.80;;;;;;;16.67;68.51;100082.00;1750723;81;20975;-71
2021/05/30 04:40:23;;;;;;;2.55;1.80;;;;;;;16.88;67.12;100078.55;1750670;82;21087;-68
2021/05/30 04:42:48;;;;;;;4.42;2.77;;;;;;;17.04;66.60;100085.95;1750484;80;21051;-69
2021/05/30 04:45:18;;;;;;;4.78;2.10;;;;;;;17.18;66.24;100083.39;1750755;81;21019;-70
2021/05/30 04:47:46;;;;;;;6.50;1.82;;;;;;;17.33;65.34;100081.09;1778982;80;21384;-71
2021/05/30 04:50:14;;;;;;;2.90;1.55;;;;;;;17.45;64.50;100083.81;1779183;80;21518;-69
2021/05/30 04:52:41;;;;;;;7.08;2.02;;;;;;;17.53;64.05;100094.20;1779408;80;20958;-69
2021/05/30 04:55:15;;;;;;;4.35;2.30;;;;;;;17.55;63.88;100090.25;1779145;80;20950;-70
2021/05/30 04:57:42;;;;;;;4.20;1.95;;;;;;;17.57;63.70;100096.23;1743513;82;21094;-71
2021/05/30 05:00:10;;;;;;;4.87;1.65;;;;;;;17.63;63.45;100102.57;1744048;82;21057;-69
2021/05/30 05:02:37;;;;;;;2.12;1.40;;;;;;;17.68;62.68;100100.80;1711776;81;21106;-70
2021/05/30 05:05:05;;;;;;;4.17;1.60;;;;;;;17.76;62.13;100110.40;1700636;83;21018;-70
2021/05/30 05:07:31;;;;;;;3.12;1.60;;;;;;;17.87;62.03;100111.45;1742495;81;21014;-70
2021/05/30 05:09:58;;;;;;;3.22;1.87;;;;;;;17.94;61.22;100110.29;1742259;82;21022;-70
2021/05/30 05:12:25;;;;;;;4.17;1.60;;;;;;;17.99;60.70;100105.05;1742197;82;21036;-71
2021/05/30 05:14:53;;;;;;;7.37;1.82;;;;;;;18.08;60.45;100105.00;1749552;81;20923;-67
2021/05/30 05:17:19;;;;;;;2.47;1.30;;;;;;;18.12;59.89;100097.27;1702796;82;21058;-69
2021/05/30 05:19:47;;;;;;;1.77;1.25;;;;;;;18.08;59.13;100096.92;1736171;82;20998;-70
2021/05/30 05:22:13;;;;;;;3.80;1.42;;;;;;;18.00;58.63;100096.45;1737056;81;20990;-68
2021/05/30 05:24:40;;;;;;;2.92;1.35;;;;;;;17.82;58.23;100093.36;1737472;81;21048;-66
2021/05/30 05:27:08;;;;;;;3.85;1.75;;;;;;;17.62;58.35;100088.83;1736694;82;21045;-66
2021/05/30 05:29:38;;;;;;;5.15;1.47;;;;;;;17.47;58.66;100095.14;1736900;82;21003;-69
2021/05/30 05:32:07;;;;;;;4.25;1.52;;;;;;;17.33;59.22;100098.56;1736703;81;21026;-68
2021/05/30 05:34:34;;;;;;;4.62;1.57;;;;;;;17.21;59.50;100097.70;1736879;81;21452;-69
2021/05/30 05:37:13;;;;;;;1.80;1.57;;;;;;;17.10;60.08;100103.34;1729086;80;21082;-71
2021/05/30 05:39:41;;;;;;;3.25;1.52;;;;;;;17.04;60.39;100098.03;1767609;80;20965;-68
2021/05/30 05:42:08;;;;;;;4.30;1.70;;;;;;;17.02;60.85;100102.83;1768010;81;21077;-67
2021/05/30 05:44:35;;;;;;;2.05;1.50;;;;;;;17.06;60.70;100102.67;1768016;81;21035;-68
2021/05/30 05:47:04;;;;;;;2.45;1.52;;;;;;;17.09;60.66;100105.72;1767862;81;20967;-70
2021/05/30 05:49:33;;;;;;;4.90;1.57;;;;;;;17.18;60.91;100108.36;1767909;80;21078;-69
2021/05/30 05:51:59;;;;;;;2.87;1.55;;;;;;;17.32;60.74;100115.73;1767784;81;21433;-69
2021/05/30 05:54:26;;;;;;;3.35;1.85;;;;;;;17.44;60.16;100122.48;1768109;81;20975;-70
2021/05/30 05:56:52;;;;;;;3.70;1.40;;;;;;;17.51;59.82;100114.61;1765043;80;21038;-70
2021/05/30 05:59:21;;;;;;;2.83;1.80;;;;;;;17.54;59.66;100117.34;1773867;80;21018;-70
2021/05/30 06:01:53;;;;;;;5.65;1.75;;;;;;;17.56;59.44;100124.67;1767742;80;21653;-68
2021/05/30 06:04:25;;;;;;;2.10;1.60;;;;;;;17.57;59.45;100120.42;1758875;80;21053;-72
2021/05/30 06:06:56;;;;;;;3.55;1.70;;;;;;;17.59;59.19;100119.69;1709958;82;21003;-71
2021/05/30 06:09:37;;;;;;;4.62;1.65;;;;;;;17.59;59.29;100114.83;1705063;83;21628;-71
2021/05/30 06:12:11;;;;;;;4.12;1.55;;;;;;;17.60;59.36;100109.20;1710664;83;21053;-70
2021/05/30 06:14:41;;;;;;;3.95;1.80;;;;;;;17.60;59.71;100113.79;1647832;83;41932;-72
2021/05/30 06:17:07;;;;;;;2.92;1.60;;;;;;;17.60;59.44;100115.92;1711161;83;21062;-69
2021/05/30 06:19:35;;;;;;;3.83;1.80;;;;;;;17.60;59.59;100114.58;1711027;83;21569;-71
2021/05/30 06:22:12;;;;;;;3.00;1.67;;;;;;;17.62;60.13;100111.67;1717548;83;21054;-71
2021/05/30 06:24:41;;;;;;;2.90;1.55;;;;;;;17.66;59.60;100125.77;1701774;83;21168;-70
2021/05/30 06:27:08;;;;;;;4.33;1.62;;;;;;;17.76;60.14;100117.95;1737301;81;21382;-70
2021/05/30 06:29:35;;;;;;;5.62;1.70;;;;;;;17.94;59.58;100122.95;1740713;80;20974;-70
2021/05/30 06:32:02;;;;;;;3.05;1.62;;;;;;;18.11;59.43;100122.53;1739761;81;20955;-73
2021/05/30 06:34:29;;;;;;;2.72;1.80;;;;;;;18.25;59.26;100116.67;1716475;81;21587;-70
2021/05/30 06:36:57;;;;;;;4.47;3.08;;;;;;;18.38;58.98;100117.48;1766243;79;21081;-70
2021/05/30 06:39:24;;;;;;;4.50;1.87;;;;;;;18.44;58.95;100119.22;1751823;80;21680;-68
2021/05/30 06:41:54;;;;;;;3.30;1.60;;;;;;;18.49;58.78;100126.06;1749904;81;21077;-68
2021/05/30 06:44:20;;;;;;;3.12;1.80;;;;;;;18.54;58.36;100132.39;1713256;83;21516;-69
2021/05/30 06:46:47;;;;;;;4.22;1.57;;;;;;;18.51;58.17;100129.33;1746296;82;21653;-71
2021/05/30 06:49:14;;;;;;;3.17;1.45;;;;;;;18.48;58.33;100130.62;1748803;80;21014;-69
2021/05/30 06:51:42;;;;;;;6.42;1.40;;;;;;;18.45;58.41;100139.18;1699702;82;21064;-69
2021/05/30 06:54:09;;;;;;;2.25;1.50;;;;;;;18.39;58.50;100133.41;1743964;81;21567;-70
2021/05/30 06:56:37;;;;;;;4.42;1.57;;;;;;;18.36;58.64;100135.20;1769252;80;20974;-69
2021/05/30 06:59:05;;;;;;;2.98;1.27;;;;;;;18.34;58.82;100135.98;1718188;83;21101;-69
2021/05/30 07:01:37;;;;;;;3.67;1.22;;;;;;;18.31;58.62;100132.41;1713883;83;21101;-65
2021/05/30 07:04:04;;;;;;;3.12;1.27;;;;;;;18.25;58.09;100138.20;1749942;80;21046;-71
2021/05/30 07:06:35;;;;;;;4.05;1.32;;;;;;;18.19;57.80;100138.33;1755073;80;21069;-74
2021/05/30 07:09:09;;;;;;;3.80;1.10;;;;;;;18.12;58.06;100137.62;1758928;80;21025;-73
2021/05/30 07:11:36;;;;;;;2.90;1.20;;;;;;;18.06;57.05;100138.54;1763948;80;21479;-67
2021/05/30 07:14:15;;;;;;;3.10;1.70;;;;;;;17.95;57.29;100143.39;1757950;80;20961;-69
2021/05/30 07:16:38;;;;;;;6.10;1.67;;;;;;;17.93;57.72;100144.16;1754717;80;21155;-67
2021/05/30 07:19:05;;;;;;;3.25;1.35;;;;;;;17.94;58.10;100141.22;1764039;80;21057;-67
2021/05/30 07:21:32;;;;;;;8.40;1.37;;;;;;;17.99;58.39;100152.11;1781204;80;21570;-67
2021/05/30 07:23:59;;;;;;;4.47;1.50;;;;;;;18.07;58.58;100147.73;1781230;80;21025;-71
2021/05/30 07:26:26;;;;;;;4.20;1.80;;;;;;;18.12;58.18;100151.08;1781969;80;20995;-76
2021/05/30 07:28:54;;;;;;;2.58;1.45;;;;;;;18.18;58.09;100147.44;1757744;80;21218;-67
2021/05/30 07:31:20;;;;;;;3.27;1.50;;;;;;;18.21;57.79;100152.34;1714799;83;21062;-67
2021/05/30 07:33:48;;;;;;;2.85;1.35;;;;;;;18.21;57.63;100153.17;1696850;83;21110;-66
2021/05/30 07:36:14;;;;;;;3.98;1.62;;;;;;;18.22;57.52;100153.99;1679591;85;21070;-67
2021/05/30 07:38:42;;;;;;;2.22;1.50;;;;;;;18.22;57.70;100155.34;1678933;85;21876;-67
2021/05/30 07:41:09;;;;;;;2.55;1.30;;;;;;;18.29;57.24;100164.11;1678674;85;21099;-68
2021/05/30 07:43:35;;;;;;;1.70;1.30;;;;;;;18.37;57.05;100169.66;1678449;85;21147;-69
2021/05/30 07:46:04;;;;;;;2.52;1.20;;;;;;;18.49;57.00;100166.45;1678673;85;21162;-67
2021/05/30 07:48:31;;;;;;;2.77;1.30;;;;;;;18.66;56.10;100164.16;1678727;85;20978;-67
2021/05/30 07:50:58;;;;;;;3.08;1.30;;;;;;;18.87;55.25;100168.64;1696403;84;21065;-65
2021/05/30 07:53:24;;;;;;;2.95;1.30;;;;;;;19.02;55.78;100171.64;1696517;84;21101;-67
2021/05/30 07:55:51;;;;;;;4.40;1.40;;;;;;;19.18;55.11;100174.94;1696171;84;21601;-67
2021/05/30 07:58:17;;;;;;;3.77;1.20;;;;;;;19.32;54.82;100180.84;1696475;84;21039;-67
2021/05/30 08:00:45;;;;;;;4.45;1.75;;;;;;;19.54;54.94;100181.30;1664831;84;21109;-66
2021/05/30 08:03:11;;;;;;;2.52;1.55;;;;;;;19.89;54.46;100182.45;1686031;84;21015;-66
2021/05/30 08:05:38;;;;;;;3.12;1.40;;;;;;;20.27;53.31;100168.20;1708840;84;21046;-66
2021/05/30 08:08:05;;;;;;;3.05;1.57;;;;;;;20.59;52.43;100175.16;1707224;84;21110;-67
2021/05/30 08:10:33;;;;;;;2.27;1.20;;;;;;;20.90;52.03;100183.95;1707071;83;21504;-67
2021/05/30 08:13:01;;;;;;;1.80;1.30;;;;;;;21.34;49.70;100175.86;1706324;82;22333;-67
2021/05/30 08:15:27;;;;;;;5.45;1.22;;;;;;;21.34;49.70;100175.86;1719977;82;21046;-67
2021/05/30 08:17:54;;;;;;;2.33;1.00;;;;;;;21.50;49.30;100182.50;1730494;82;21703;-64
2021/05/30 08:20:23;;;;;;;3.45;1.17;;;;;;;21.71;49.05;100188.12;1712642;83;21038;-66
2021/05/30 08:22:51;;;;;;;2.37;1.15;;;;;;;21.87;48.24;100186.63;1715334;82;21082;-66
2021/05/30 08:25:18;;;;;;;2.35;1.02;;;;;;;21.99;47.67;100197.32;1739485;82;21611;-67
2021/05/30 08:27:46;;;;;;;2.17;1.05;;;;;;;21.93;47.36;100191.59;1739515;82;21054;-67
2021/05/30 08:30:13;;;;;;;1.72;0.80;;;;;;;21.76;47.30;100190.85;1739334;82;21852;-68
2021/05/30 08:32:40;;;;;;;4.17;1.30;;;;;;;21.57;47.20;100196.64;1739392;82;20967;-67
2021/05/30 08:35:08;;;;;;;3.17;1.10;;;;;;;21.48;47.74;100186.55;1718617;82;21560;-67
2021/05/30 08:37:35;;;;;;;3.65;2.25;;;;;;;21.58;48.11;100195.58;1712888;83;21079;-65
2021/05/30 08:40:02;;;;;;;3.45;1.20;;;;;;;21.79;47.82;100193.86;1712948;83;21484;-66
2021/05/30 08:42:29;;;;;;;2.45;1.30;;;;;;;21.97;47.64;100193.53;1713136;83;21083;-67
2021/05/30 08:44:56;;;;;;;2.55;1.20;;;;;;;22.19;47.70;100190.72;1713119;83;20991;-66
2021/05/30 08:47:27;;;;;;;2.62;1.72;;;;;;;22.48;47.35;100190.64;1713183;83;20991;-66
2021/05/30 08:50:00;;;;;;;3.60;1.40;;;;;;;22.71;46.35;100185.39;1712955;82;21088;-66
2021/05/30 08:52:27;;;;;;;4.50;2.33;;;;;;;22.84;46.08;100193.59;1713305;82;21058;-66
2021/05/30 08:54:55;;;;;;;2.67;1.60;;;;;;;22.98;44.99;100200.16;1695973;83;21145;-67
2021/05/30 08:57:22;;;;;;;3.05;1.10;;;;;;;22.95;44.80;100199.33;1667812;85;22114;-65
2021/05/30 08:59:54;;;;;;;4.53;1.50;;;;;;;22.87;45.43;100201.19;1682044;83;21453;-67
2021/05/30 09:02:21;;;;;;;1.67;1.07;;;;;;;22.85;45.31;100195.23;1681181;83;21106;-66
2021/05/30 09:04:56;;;;;;;2.80;1.32;;;;;;;22.87;45.58;100202.55;1678366;83;21126;-66
2021/05/30 09:07:52;;;;;;;;;;;;;;;23.13;45.24;100208.34;1685343;83;22011;-66
2021/05/30 09:10:25;;;;;;;1.90;1.10;;;;;;;23.37;44.70;100204.64;1682015;83;20311;-66
2021/05/30 09:13:11;;;;;;;3.25;1.25;;;;;;;23.58;43.84;100209.05;1682594;83;21007;-67
2021/05/30 09:16:07;;;;;;;2.22;1.40;;;;;;;23.60;43.15;100210.15;1681388;83;21162;-68
2021/05/30 09:18:33;;;;;;;4.87;1.40;;;;;;;23.47;43.34;100212.83;1671477;83;21098;-66
2021/05/30 09:21:03;;;;;;;2.12;1.30;;;;;;;23.42;43.62;100218.23;1733446;81;21174;-64
2021/05/30 09:23:44;;;;;;;2.35;1.22;;;;;;;23.53;43.46;100207.67;1734727;81;21543;-68
2021/05/30 09:26:18;;;;;;;2.67;1.50;;;;;;;23.72;43.32;100212.86;1737694;81;21548;-67
2021/05/30 09:29:06;;;;;;;1.60;1.07;;;;;;;23.89;42.87;100219.41;1740461;81;21054;-68
2021/05/30 09:32:00;;;;;;;5.15;1.82;;;;;;;23.94;42.40;100205.85;1729566;81;20993;-68
2021/05/30 09:34:35;;;;;;;4.75;2.30;;;;;;;23.91;42.57;100213.16;1735265;81;21086;-67
2021/05/30 09:37:03;;;;;;;3.17;1.65;;;;;;;23.91;42.44;100218.05;1700134;81;28101;-68
2021/05/30 09:39:37;;;;;;;2.22;1.40;;;;;;;23.92;42.21;100225.11;1734459;81;21081;-66
2021/05/30 09:42:35;;;;;;;4.15;1.32;;;;;;;24.05;42.11;100232.45;1738015;82;21002;-67
2021/05/30 09:45:10;;;;;;;2.12;1.20;;;;;;;24.10;41.46;100229.72;1686490;84;21070;-64
2021/05/30 09:47:46;;;;;;;4.55;1.27;;;;;;;23.98;41.77;100227.30;1746624;81;21077;-71
2021/05/30 09:50:18;;;;;;;2.25;1.00;;;;;;;23.93;42.56;100224.58;1754401;80;21089;-66
2021/05/30 09:52:52;;;;;;;4.15;1.17;;;;;;;23.98;42.83;100224.59;1740533;82;21523;-67
2021/05/30 09:55:28;;;;;;;1.37;0.98;;;;;;;24.16;43.25;100230.86;1749285;82;21569;-70
2021/05/30 09:58:18;;;;;;;2.22;1.17;;;;;;;24.39;41.93;100219.98;1749140;82;20985;-68
2021/05/30 10:01:00;;;;;;;4.83;1.67;;;;;;;24.43;41.35;100232.72;1723791;82;21061;-68
2021/05/30 10:03:27;;;;;;;7.45;1.87;;;;;;;24.41;41.15;100224.05;1780485;80;20979;-67
2021/05/30 10:05:54;;;;;;;4.47;1.52;;;;;;;24.45;41.40;100221.05;1780257;80;20970;-67
2021/05/30 10:08:23;;;;;;;7.20;1.30;;;;;;;24.49;41.20;100228.66;1781267;80;20954;-69
2021/05/30 10:10:51;;;;;;;2.45;1.37;;;;;;;24.47;41.13;100229.48;1772565;80;21045;-70
2021/05/30 10:13:17;;;;;;;4.03;1.25;;;;;;;24.39;41.04;100224.88;1781160;80;21103;-72
2021/05/30 10:15:44;;;;;;;2.37;1.15;;;;;;;24.35;41.29;100222.44;1781705;80;20915;-73
2021/05/30 10:18:25;;;;;;;2.95;0.90;;;;;;;24.32;41.80;100221.59;1781644;80;21038;-72
2021/05/30 10:20:52;;;;;;;5.83;1.20;;;;;;;24.39;41.14;100227.59;1781533;80;21775;-72
2021/05/30 10:23:20;;;;;;;2.42;0.93;;;;;;;24.39;40.68;100233.56;1751207;80;21585;-73
2021/05/30 10:25:47;;;;;;;2.10;0.85;;;;;;;24.38;41.18;100216.45;1781730;80;21070;-73
2021/05/30 10:28:20;;;;;;;1.12;0.80;;;;;;;24.52;40.71;100216.69;1781509;80;20967;-73
2021/05/30 10:30:51;;;;;;;3.47;1.30;;;;;;;24.62;40.33;100217.23;1781575;80;20991;-71
2021/05/30 10:33:24;;;;;;;2.72;0.90;;;;;;;24.80;40.50;100210.66;1781720;80;21081;-71
2021/05/30 10:35:56;;;;;;;2.05;0.80;;;;;;;25.17;39.77;100215.70;1781531;80;21030;-73
2021/05/30 10:38:42;;;;;;;2.17;1.10;;;;;;;25.70;38.90;100210.00;1780421;79;21070;-73
2021/05/30 10:41:17;;;;;;;2.60;0.80;;;;;;;26.14;37.54;100218.09;1777530;79;21071;-71
2021/05/30 10:43:45;;;;;;;1.82;1.02;;;;;;;26.78;36.45;100217.76;1773028;81;20963;-71
2021/05/30 10:46:13;;;;;;;1.90;1.32;;;;;;;27.69;35.10;100224.01;1773034;81;20939;-70
2021/05/30 10:48:41;;;;;;;2.15;0.90;;;;;;;28.84;33.33;100227.28;1773150;81;22034;-72
2021/05/30 10:53:53;;;;;;;2.30;0.85;;;;;;;30.70;29.78;100235.62;1773012;81;20923;-71
2021/05/30 10:56:39;;;;;;;2.62;0.90;;;;;;;31.29;28.03;100229.55;1773101;81;21050;-73
2021/05/30 10:59:21;;;;;;;3.15;1.30;;;;;;;31.70;27.58;100229.14;1769506;80;21007;-72
2021/05/30 11:01:51;;;;;;;2.67;0.75;;;;;;;31.87;27.17;100237.40;1772882;81;21019;-71
2021/05/30 11:04:31;;;;;;;3.33;1.27;;;;;;;31.72;27.13;100235.14;1772844;81;21043;-75
2021/05/30 11:07:04;;;;;;;1.62;1.20;;;;;;;31.39;27.73;100239.41;1746135;80;21058;-71
2021/05/30 11:09:59;;;;;;;4.75;1.00;;;;;;;31.25;27.63;100242.30;1772840;79;20951;-73
2021/05/30 11:12:35;;;;;;;2.08;1.10;;;;;;;31.17;27.73;100241.71;1772818;81;21512;-71
2021/05/30 11:15:14;;;;;;;2.95;1.37;;;;;;;31.14;27.69;100243.73;1745405;80;21054;-71
2021/05/30 11:17:44;;;;;;;1.85;1.32;;;;;;;30.90;28.00;100245.47;1773065;80;21055;-72
2021/05/30 11:20:26;;;;;;;3.65;1.45;;;;;;;30.67;28.34;100242.53;1773001;81;20999;-72
2021/05/30 11:22:58;;;;;;;1.72;1.27;;;;;;;30.44;28.38;100249.22;1773240;80;21500;-80
2021/05/30 11:25:50;;;;;;;4.40;1.10;;;;;;;30.15;28.62;100248.80;1773321;80;21082;-73
2021/05/30 11:28:23;;;;;;;1.80;1.00;;;;;;;29.94;28.65;100247.95;1773210;81;21093;-74
2021/05/30 11:31:04;;;;;;;3.02;1.17;;;;;;;29.47;29.52;100245.70;1772844;80;21099;-72
2021/05/30 11:33:40;;;;;;;4.05;0.88;;;;;;;29.14;29.46;100249.94;1773123;80;21550;-73
2021/05/30 11:36:08;;;;;;;2.30;1.33;;;;;;;29.20;29.21;100243.78;1773556;80;20939;-73
2021/05/30 11:38:45;;;;;;;1.72;1.10;;;;;;;29.05;29.67;100246.83;1773003;81;20979;-72